»·PEaware :: RBD343 KABQ-KCOS

RBD343 :: KABQ-KCOS

FLIGHT INFORMATION

Flight Status: Arrived
Operator: Unknown
More flights by this operator :: More flights under this callsign
Pilot: James W. (12414)
Aircraft: BOEING 737-800
(B738)
More flights by this aircraft type
Origin: KABQ Albuquerque Intl Sunport
United States
Destination: KCOS City Of Colorado Springs Mun
United States
More flights between these airports :: More routes between these airports
Route: +LARGO3 HANOS ALS DBRY3
File this flight plan on PilotEdge
Remarks:
Altitude:
(Current/Filed)
35,000ft
Speed:
(Current/Filed)
450kts
Departed: 29-Jul-20 05:43 PM
Arrived: 29-Jul-20 06:37 PM
Distance/Time
Traveled:
244nm/0:54
Distance/Time
To Go:
Arrived

Flight Plot

Page will automatically refresh every two minutes.


Map Options




Map Legend


Flown Route
Filed Route
Departure Airport
Arrival Airport
Navaid (VOR, NDB)
Fix

Horizontal Profiles

Position Reports

Time Latitude Longitude Heading Altitude Ground
Speed
29-Jul-20 17:20 35.046910 -106.617942 22 5364ft 0kts
29-Jul-20 17:21 35.046910 -106.617942 22 5364ft 0kts
29-Jul-20 17:22 35.046910 -106.617942 22 5364ft 0kts
29-Jul-20 17:23 35.046910 -106.617942 22 5364ft 0kts
29-Jul-20 17:24 35.046910 -106.617942 22 5364ft 0kts
29-Jul-20 17:25 35.046910 -106.617942 22 5364ft 0kts
29-Jul-20 17:26 35.046910 -106.617942 22 5364ft 0kts
29-Jul-20 17:27 35.046910 -106.617942 22 5364ft 0kts
29-Jul-20 17:28 35.046910 -106.617942 22 5364ft 0kts
29-Jul-20 17:29 35.046910 -106.617942 22 5364ft 0kts
29-Jul-20 17:30 35.046910 -106.617942 22 5364ft 0kts
29-Jul-20 17:31 35.046910 -106.617942 22 5364ft 0kts
29-Jul-20 17:32 35.046737 -106.618059 59 5364ft 2kts
29-Jul-20 17:33 35.046703 -106.618210 90 5364ft 0kts
29-Jul-20 17:34 35.046703 -106.618210 90 5364ft 0kts
29-Jul-20 17:35 35.046703 -106.618210 90 5364ft 0kts
29-Jul-20 17:36 35.046703 -106.618210 90 5364ft 0kts
29-Jul-20 17:37 35.045859 -106.616344 111 5364ft 13kts
29-Jul-20 17:38 35.045753 -106.610722 117 5364ft 12kts
29-Jul-20 17:39 35.042404 -106.608282 91 5364ft 8kts
29-Jul-20 17:40 35.042404 -106.608264 92 5364ft 0kts
29-Jul-20 17:41 35.041621 -106.607215 223 5364ft 6kts
29-Jul-20 17:42 35.036944 -106.612843 225 5364ft 107kts
29-Jul-20 17:43 35.001919 -106.653329 222 6668ft 194kts
29-Jul-20 17:44 34.976509 -106.714103 248 8710ft 212kts
29-Jul-20 17:45 34.962113 -106.787587 304 10751ft 245kts
29-Jul-20 17:46 35.030044 -106.813146 350 12649ft 290kts
29-Jul-20 17:47 35.124057 -106.827566 351 12840ft 378kts
29-Jul-20 17:48 35.230492 -106.843703 351 13567ft 384kts
29-Jul-20 17:49 35.338323 -106.860058 351 15425ft 394kts
29-Jul-20 17:50 35.449243 -106.876901 350 17431ft 403kts
29-Jul-20 17:51 35.562024 -106.894049 350 19265ft 411kts
29-Jul-20 17:52 35.677910 -106.911694 350 20192ft 418kts
29-Jul-20 17:53 35.793507 -106.929292 350 20221ft 417kts
29-Jul-20 17:54 35.908671 -106.946849 350 21005ft 417kts
29-Jul-20 17:55 36.025816 -106.939698 18 22499ft 438kts
29-Jul-20 17:56 36.133836 -106.864190 28 23984ft 451kts
29-Jul-20 17:57 36.239834 -106.777316 29 25389ft 460kts
29-Jul-20 17:58 36.347376 -106.686513 29 26746ft 467kts
29-Jul-20 17:59 36.454810 -106.594837 29 28555ft 463kts
29-Jul-20 18:00 36.560676 -106.504027 28 30351ft 457kts
29-Jul-20 18:01 36.664969 -106.414218 28 32144ft 449kts
29-Jul-20 18:02 36.768145 -106.325088 28 33674ft 444kts
29-Jul-20 18:03 36.869491 -106.237229 28 35004ft 440kts
29-Jul-20 18:04 36.970837 -106.149078 28 35311ft 438kts
29-Jul-20 18:05 37.071451 -106.061273 28 35311ft 440kts
29-Jul-20 18:06 37.170053 -105.975011 29 35311ft 445kts
29-Jul-20 18:07 37.271847 -105.885608 29 35309ft 443kts
29-Jul-20 18:08 37.366258 -105.783125 40 35312ft 453kts
29-Jul-20 18:09 37.451694 -105.666002 42 35311ft 453kts
29-Jul-20 18:10 37.536376 -105.545453 42 34483ft 461kts
29-Jul-20 18:11 37.620401 -105.424232 42 32476ft 458kts
29-Jul-20 18:12 37.704629 -105.302101 43 30472ft 465kts
29-Jul-20 18:13 37.790396 -105.177155 44 28496ft 472kts
29-Jul-20 18:14 37.875103 -105.053130 44 26381ft 453kts
29-Jul-20 18:15 37.955440 -104.935035 45 24070ft 432kts
29-Jul-20 18:16 38.032127 -104.820827 45 21756ft 416kts
29-Jul-20 18:17 38.104490 -104.712949 45 19490ft 402kts
29-Jul-20 18:18 38.196736 -104.650915 0 17176ft 368kts
29-Jul-20 18:19 38.295799 -104.647739 357 15856ft 329kts
29-Jul-20 18:20 38.384819 -104.645899 357 15865ft 321kts
29-Jul-20 18:21 38.474101 -104.643932 357 15892ft 319kts
29-Jul-20 18:22 38.555942 -104.602640 45 14467ft 340kts
29-Jul-20 18:23 38.612672 -104.514083 29 12612ft 300kts
29-Jul-20 18:24 38.679273 -104.514887 317 10524ft 223kts
29-Jul-20 18:25 38.715332 -104.569661 340 8369ft 193kts
29-Jul-20 18:26 38.749285 -104.525379 93 8003ft 221kts
29-Jul-20 18:27 38.728278 -104.449994 107 8037ft 226kts
29-Jul-20 18:28 38.692329 -104.388886 170 8205ft 230kts
29-Jul-20 18:29 38.646280 -104.426859 259 7904ft 201kts
29-Jul-20 18:30 38.651715 -104.494504 301 8122ft 192kts
29-Jul-20 18:31 38.685636 -104.544846 313 7847ft 173kts
29-Jul-20 18:32 38.715848 -104.584856 314 7407ft 153kts
29-Jul-20 18:33 38.747213 -104.620817 314 6861ft 151kts
29-Jul-20 18:34 38.777986 -104.658403 315 6835ft 153kts
29-Jul-20 18:35 38.808673 -104.696836 316 6219ft 146kts
29-Jul-20 18:36 38.820844 -104.712935 253 6210ft 15kts
29-Jul-20 18:37 38.820484 -104.713394 199 6210ft 0kts
29-Jul-20 18:38 38.815290 -104.713462 182 6210ft 37kts

Navigation Log

Ident Type
Flight plan parsing failed, navigation log unavailable